Time;durP1;ratioP1;P1;durP2;ratioP2;P2;SDS_P1;SDS_P2;PMS_P1;PMS_P2;Temp;Humidity;BMP_temperature;BMP_pressure;BME280_temperature;BME280_humidity;BME280_pressure;Samples;Min_cycle;Max_cycle;Signal;HPM_P1;HPM_P2
2021/12/31 00:00:46;;;;;;;;;15.00;15.00;;;;;15.88;67.53;101578.81;2096491;27;47228;-58
2021/12/31 00:01:46;;;;;;;;;13.00;12.00;;;;;15.87;67.58;101575.22;2094645;27;47687;-57
2021/12/31 00:02:47;;;;;;;;;11.00;11.00;;;;;15.87;67.57;101577.03;2069399;27;47844;-57
2021/12/31 00:03:48;;;;;;;;;14.67;13.67;;;;;15.87;67.41;101582.38;2060736;28;48165;-58
2021/12/31 00:04:50;;;;;;;;;11.00;11.00;;;;;15.87;67.77;101577.03;2063409;28;48181;-58
2021/12/31 00:05:51;;;;;;;;;12.00;11.33;;;;;15.87;67.76;101571.66;2099175;27;48343;-58
2021/12/31 00:06:51;;;;;;;;;9.67;8.67;;;;;15.86;67.35;101570.78;2094308;28;47937;-58
2021/12/31 00:07:52;;;;;;;;;11.67;11.00;;;;;15.87;67.35;101569.00;2065907;28;47007;-56
2021/12/31 00:08:52;;;;;;;;;10.33;10.33;;;;;15.86;67.67;101568.13;2083275;27;46824;-59
2021/12/31 00:09:58;;;;;;;;;10.67;10.00;;;;;15.86;67.82;101567.25;2074128;28;47544;-57
2021/12/31 00:10:59;;;;;;;;;13.25;11.25;;;;;15.86;67.16;101564.56;2099209;28;47356;-57
2021/12/31 00:12:00;;;;;;;;;14.00;13.50;;;;;15.85;67.35;101565.50;2093657;27;47072;-56
2021/12/31 00:13:00;;;;;;;;;12.00;11.33;;;;;15.84;67.63;101561.94;2061909;27;47264;-57
2021/12/31 00:14:02;;;;;;;;;12.00;12.00;;;;;15.84;67.50;101569.97;2062334;27;48353;-57
2021/12/31 00:15:03;;;;;;;;;13.25;12.00;;;;;15.84;67.61;101567.28;2076005;28;47985;-57
2021/12/31 00:16:04;;;;;;;;;12.75;12.75;;;;;15.85;67.74;101573.53;2089326;28;47285;-57
2021/12/31 00:17:05;;;;;;;;;13.00;12.00;;;;;15.84;67.77;101563.75;2094140;28;47014;-57
2021/12/31 00:18:06;;;;;;;;;12.00;12.00;;;;;15.84;67.76;101569.09;2068580;28;48253;-55
2021/12/31 00:19:06;;;;;;;;;14.00;12.00;;;;;15.82;67.51;101574.50;2058679;27;47175;-58
2021/12/31 00:20:16;;;;;;;;;12.67;12.67;;;;;15.82;67.41;101573.63;2086123;28;47258;-56
2021/12/31 00:21:16;;;;;;;;;14.00;14.00;;;;;15.82;67.62;101565.59;2093607;27;47224;-56
2021/12/31 00:23:25;;;;;;;;;12.75;12.75;;;;;15.81;67.77;101563.84;2077173;28;47494;-56
2021/12/31 00:24:27;;;;;;;;;13.50;13.50;;;;;15.81;67.87;101563.84;2062872;27;47564;-57
2021/12/31 00:25:29;;;;;;;;;11.75;11.75;;;;;15.80;67.72;101564.78;2077700;27;47572;-59
2021/12/31 00:26:30;;;;;;;;;11.50;11.50;;;;;15.79;67.80;101563.88;2080940;28;47830;-58
2021/12/31 00:27:30;;;;;;;;;13.00;13.00;;;;;15.80;67.43;101559.41;2081472;27;47402;-55
2021/12/31 00:28:30;;;;;;;;;12.00;12.00;;;;;15.79;67.33;101555.00;2059690;28;48193;-58
2021/12/31 00:29:31;;;;;;;;;13.33;13.33;;;;;15.78;67.67;101561.25;2061046;28;47402;-56
2021/12/31 00:30:32;;;;;;;;;13.33;12.33;;;;;15.77;67.43;101557.72;2056396;28;48268;-55
2021/12/31 00:31:33;;;;;;;;;12.25;11.00;;;;;15.75;67.30;101551.53;2090536;28;47308;-56
2021/12/31 00:32:33;;;;;;;;;15.00;13.33;;;;;15.77;67.38;101548.81;2086417;27;46140;-59
2021/12/31 00:33:34;;;;;;;;;14.33;14.33;;;;;15.76;67.79;101550.59;2059412;27;48199;-57
2021/12/31 00:34:34;;;;;;;;;13.00;11.00;;;;;15.75;67.34;101554.22;2067569;27;47100;-57
2021/12/31 00:35:36;;;;;;;;;11.67;11.67;;;;;15.76;67.52;101544.38;2057867;28;47182;-56
2021/12/31 00:36:38;;;;;;;;;14.25;14.25;;;;;15.74;67.47;101544.41;2098451;28;47141;-57
2021/12/31 00:37:39;;;;;;;;;8.50;7.50;;;;;15.73;67.50;101542.66;2077524;27;48570;-57
2021/12/31 00:38:40;;;;;;;;;11.00;10.75;;;;;15.71;67.60;101541.81;2056484;28;48130;-58
2021/12/31 00:39:40;;;;;;;;;12.67;10.33;;;;;15.72;67.23;101542.69;2073908;28;47297;-58
2021/12/31 00:40:41;;;;;;;;;13.00;13.00;;;;;15.71;67.17;101541.81;2067034;28;47085;-58
2021/12/31 00:41:42;;;;;;;;;10.67;10.67;;;;;15.72;67.41;101545.38;2099267;27;47147;-57
2021/12/31 00:42:43;;;;;;;;;14.00;13.50;;;;;15.70;67.69;101544.53;2064581;27;48390;-56
2021/12/31 00:43:44;;;;;;;;;14.33;14.33;;;;;15.69;67.29;101540.13;2057754;28;48085;-58
2021/12/31 00:44:44;;;;;;;;;13.67;12.67;;;;;15.69;67.76;101542.78;2076057;27;46992;-57
2021/12/31 00:45:44;;;;;;;;;12.33;12.33;;;;;15.67;67.65;101548.19;2075265;27;48162;-59
2021/12/31 00:46:47;;;;;;;;;10.33;10.33;;;;;15.68;67.77;101549.06;2095921;27;47484;-58
2021/12/31 00:47:48;;;;;;;;;11.50;11.50;;;;;15.67;67.39;101548.19;2063143;28;45546;-58
2021/12/31 00:48:48;;;;;;;;;14.25;12.75;;;;;15.67;67.30;101550.00;2068107;27;48444;-58
2021/12/31 00:49:49;;;;;;;;;14.33;13.67;;;;;15.66;67.55;101554.47;2072579;27;47927;-57
2021/12/31 00:50:49;;;;;;;;;11.00;11.00;;;;;15.66;67.66;101559.81;2084982;28;46399;-57
2021/12/31 00:51:49;;;;;;;;;13.00;13.00;;;;;15.66;67.33;101550.91;2089591;27;47846;-55
2021/12/31 00:52:50;;;;;;;;;12.67;11.33;;;;;15.65;67.60;101557.19;2065628;27;47055;-57
2021/12/31 00:53:51;;;;;;;;;12.33;10.00;;;;;15.64;67.76;101556.31;2074429;28;47803;-56
2021/12/31 00:54:51;;;;;;;;;11.33;11.33;;;;;15.64;67.60;101558.13;2071763;27;47174;-57
2021/12/31 00:55:51;;;;;;;;;12.33;10.33;;;;;15.63;67.31;101559.91;2093296;27;48268;-57
2021/12/31 00:56:52;;;;;;;;;11.67;11.67;;;;;15.63;67.69;101553.69;2090322;27;47382;-55
2021/12/31 00:57:52;;;;;;;;;11.33;10.00;;;;;15.62;67.12;101558.13;2064089;27;47063;-57
2021/12/31 00:58:53;;;;;;;;;15.00;12.33;;;;;15.62;67.63;101560.81;2083776;28;48132;-56
2021/12/31 00:59:53;;;;;;;;;12.33;12.33;;;;;15.62;67.74;101559.94;2072883;27;48187;-56
2021/12/31 01:00:54;;;;;;;;;11.67;10.00;;;;;15.62;67.22;101551.91;2097852;27;47200;-57
2021/12/31 01:01:54;;;;;;;;;14.00;12.67;;;;;15.61;67.50;101553.72;2089010;27;47515;-57
2021/12/31 01:02:55;;;;;;;;;12.67;12.33;;;;;15.60;67.22;101549.28;2062958;27;47406;-56
2021/12/31 01:03:55;;;;;;;;;10.00;10.00;;;;;15.58;67.09;101546.63;2059903;27;47583;-58
2021/12/31 01:04:56;;;;;;;;;10.50;10.50;;;;;15.58;67.22;101553.78;2067422;28;48233;-55
2021/12/31 01:05:56;;;;;;;;;11.33;9.33;;;;;15.58;67.57;101549.31;2097178;27;47625;-57
2021/12/31 01:06:58;;;;;;;;;10.33;10.33;;;;;15.57;67.13;101552.03;2089851;27;46200;-57
2021/12/31 01:07:59;;;;;;;;;12.00;11.25;;;;;15.56;67.43;101548.47;2061516;27;47497;-57
2021/12/31 01:08:59;;;;;;;;;9.33;9.33;;;;;15.56;67.33;101543.13;2083034;27;47393;-57
2021/12/31 01:10:01;;;;;;;;;13.67;12.67;;;;;15.56;67.42;101551.16;2073870;28;47214;-55
2021/12/31 01:11:02;;;;;;;;;12.75;12.75;;;;;15.56;67.17;101544.91;2096832;28;47887;-56
2021/12/31 01:12:05;;;;;;;;;9.00;9.00;;;;;15.54;67.53;101539.63;2082214;28;46882;-58
2021/12/31 01:13:10;;;;;;;;;11.00;11.00;;;;;15.54;67.36;101536.94;2059401;27;46331;-56
2021/12/31 01:14:21;;;;;;;;;11.50;9.00;;;;;15.53;67.28;101535.19;2046902;28;48164;-55
2021/12/31 01:15:46;;;;;;;;;12.75;10.75;;;;;15.53;67.31;101532.50;2087083;28;47370;-56
2021/12/31 01:16:49;;;;;;;;;9.50;9.50;;;;;15.52;67.51;101533.44;2089789;27;46950;-57
2021/12/31 01:19:59;;;;;;;;;12.00;11.50;;;;;15.50;67.20;101529.94;2077542;28;47215;-57
2021/12/31 01:20:59;;;;;;;;;10.67;10.67;;;;;15.49;67.27;101528.16;2094405;27;47303;-56
2021/12/31 01:22:00;;;;;;;;;12.33;10.67;;;;;15.49;66.97;101528.16;2093996;28;46947;-56
2021/12/31 01:23:01;;;;;;;;;14.33;13.33;;;;;15.49;67.30;101533.50;2072006;27;48530;-57
2021/12/31 01:24:02;;;;;;;;;11.25;11.00;;;;;15.50;67.51;101545.09;2061067;27;48242;-56
2021/12/31 01:25:04;;;;;;;;;12.50;12.50;;;;;15.49;66.85;101543.31;2083769;28;46124;-58
2021/12/31 01:26:05;;;;;;;;;12.75;12.00;;;;;15.48;67.28;101545.13;2055354;28;47645;-57
2021/12/31 01:27:05;;;;;;;;;9.67;9.00;;;;;15.49;66.96;101543.31;2097581;27;48033;-56
2021/12/31 01:28:06;;;;;;;;;13.33;12.33;;;;;15.48;67.46;101545.13;2057941;27;48058;-57
2021/12/31 01:29:06;;;;;;;;;10.00;10.00;;;;;15.48;67.28;101541.56;2055906;28;47788;-56
2021/12/31 01:30:09;;;;;;;;;12.67;11.67;;;;;15.47;66.95;101537.16;2057818;28;47237;-57
2021/12/31 01:31:09;;;;;;;;;14.50;14.25;;;;;15.47;66.90;101521.97;2072186;28;48116;-58
2021/12/31 01:32:10;;;;;;;;;12.67;12.33;;;;;15.46;67.35;101525.56;2094540;27;46008;-57
2021/12/31 01:33:11;;;;;;;;;10.00;10.00;;;;;15.46;67.22;101525.56;2065290;28;46803;-57
2021/12/31 01:34:11;;;;;;;;;9.33;8.67;;;;;15.46;67.21;101530.06;2064156;27;46315;-56
2021/12/31 01:35:15;;;;;;;;;11.33;8.00;;;;;15.45;67.30;101526.50;2055954;28;48241;-56
2021/12/31 01:36:15;;;;;;;;;13.25;11.50;;;;;15.44;67.20;101524.75;2082555;28;48397;-57
2021/12/31 01:37:15;;;;;;;;;13.00;13.00;;;;;15.44;66.89;101530.09;2089122;27;46918;-56
2021/12/31 01:38:19;;;;;;;;;11.00;10.33;;;;;15.44;66.83;101534.56;2054174;28;47083;-56
2021/12/31 01:39:20;;;;;;;;;13.25;11.25;;;;;15.43;67.04;101533.69;2073456;28;47335;-57
2021/12/31 01:40:20;;;;;;;;;9.00;7.67;;;;;15.43;67.16;101535.50;2055095;28;47132;-57
2021/12/31 01:41:21;;;;;;;;;8.67;7.67;;;;;15.42;67.24;101539.09;2093905;28;47244;-56
2021/12/31 01:42:28;;;;;;;;;8.67;8.33;;;;;15.43;67.16;101532.81;2080079;27;48497;-58
2021/12/31 01:43:29;;;;;;;;;9.25;9.25;;;;;15.42;67.00;101534.63;2053378;28;47630;-55
2021/12/31 01:44:40;;;;;;;;;9.00;9.00;;;;;15.41;67.08;101540.91;2080536;28;47720;-56
2021/12/31 01:45:44;;;;;;;;;11.75;11.00;;;;;15.42;66.74;101547.13;2072868;27;48603;-57
2021/12/31 01:46:59;;;;;;;;;11.50;11.50;;;;;15.42;67.18;101555.16;2097093;27;48188;-56
2021/12/31 01:48:09;;;;;;;;;11.50;10.25;;;;;15.42;67.04;101553.34;2059012;27;46917;-55
2021/12/31 01:49:19;;;;;;;;;8.50;8.50;;;;;15.41;67.05;101562.28;2083522;28;47598;-58
2021/12/31 01:50:21;;;;;;;;;10.25;9.00;;;;;15.41;67.32;101556.94;2057937;28;47335;-55
2021/12/31 01:51:21;;;;;;;;;11.25;10.25;;;;;15.41;66.48;101567.66;2097567;27;46242;-57
2021/12/31 01:52:22;;;;;;;;;10.00;10.00;;;;;15.40;67.12;101562.34;2080466;27;48062;-56
2021/12/31 01:53:23;;;;;;;;;11.00;11.00;;;;;15.40;66.57;101565.88;2056576;28;47117;-57
2021/12/31 01:54:23;;;;;;;;;11.67;10.67;;;;;15.40;67.02;101565.88;2090213;28;47174;-57
2021/12/31 01:55:26;;;;;;;;;9.00;8.67;;;;;15.39;66.62;101566.81;2074733;28;47903;-56
2021/12/31 01:56:31;;;;;;;;;10.25;9.50;;;;;15.39;66.76;101568.63;2095648;27;47477;-56
2021/12/31 01:57:33;;;;;;;;;9.75;9.75;;;;;15.39;66.60;101563.25;2077825;28;47701;-55
2021/12/31 01:58:34;;;;;;;;;12.50;10.25;;;;;15.38;66.96;101565.06;2071903;28;48398;-56
2021/12/31 01:59:37;;;;;;;;;10.00;9.00;;;;;15.39;66.76;101565.94;2082813;27;48077;-57
2021/12/31 02:00:39;;;;;;;;;10.75;9.75;;;;;15.38;67.03;101559.72;2091573;28;47557;-56
2021/12/31 02:01:39;;;;;;;;;9.00;9.00;;;;;15.38;66.76;101566.84;2091782;27;47307;-57
2021/12/31 02:02:44;;;;;;;;;13.00;11.33;;;;;15.37;66.96;101557.94;2073522;27;47799;-57
2021/12/31 02:03:45;;;;;;;;;10.50;9.00;;;;;15.38;66.92;101558.84;2062801;28;47559;-57
2021/12/31 02:04:45;;;;;;;;;11.00;11.00;;;;;15.38;66.66;101559.72;2061960;28;48286;-57
2021/12/31 02:05:46;;;;;;;;;13.00;12.00;;;;;15.37;67.03;101557.94;2097139;27;47674;-57
2021/12/31 02:06:47;;;;;;;;;8.67;8.67;;;;;15.36;66.74;101553.50;2092156;27;47922;-56
2021/12/31 02:07:48;;;;;;;;;10.25;10.25;;;;;15.36;66.87;101548.16;2067797;27;47174;-55
2021/12/31 02:08:48;;;;;;;;;9.50;9.50;;;;;15.37;66.49;101562.41;2082053;28;47216;-56
2021/12/31 02:09:54;;;;;;;;;8.33;8.00;;;;;15.36;66.89;101557.97;2072040;28;46100;-56
2021/12/31 02:10:54;;;;;;;;;10.50;9.50;;;;;15.34;66.82;101551.78;2097111;27;48232;-54
2021/12/31 02:11:55;;;;;;;;;12.00;12.00;;;;;15.34;66.79;101555.34;2092222;27;48209;-57
2021/12/31 02:12:56;;;;;;;;;14.67;14.00;;;;;15.33;66.51;101548.25;2063011;27;46945;-57
2021/12/31 02:13:58;;;;;;;;;12.50;10.75;;;;;15.32;66.82;101546.50;2061999;28;48035;-57
2021/12/31 02:14:58;;;;;;;;;12.00;9.25;;;;;15.32;66.44;101550.03;2069505;28;46901;-57
2021/12/31 02:15:58;;;;;;;;;13.00;12.33;;;;;15.32;66.72;101547.38;2097103;27;46881;-56
2021/12/31 02:16:59;;;;;;;;;12.67;12.33;;;;;15.32;66.95;101552.72;2092212;27;47238;-55
2021/12/31 02:18:01;;;;;;;;;11.33;11.00;;;;;15.33;66.76;101550.91;2065295;27;47894;-56
2021/12/31 02:19:13;;;;;;;;;11.75;11.75;;;;;15.32;66.15;101550.03;2061351;27;47113;-56
2021/12/31 02:20:16;;;;;;;;;9.75;8.25;;;;;15.30;66.64;101538.53;2085786;28;48270;-59
2021/12/31 02:21:16;;;;;;;;;13.25;10.50;;;;;15.30;66.43;101540.31;2090593;27;47441;-58
2021/12/31 02:22:25;;;;;;;;;12.33;11.00;;;;;15.27;66.26;101533.25;2089528;27;47404;-57
2021/12/31 02:23:31;;;;;;;;;12.25;8.75;;;;;15.26;66.59;101536.00;2074389;28;47485;-58
2021/12/31 02:24:35;;;;;;;;;10.00;10.00;;;;;15.25;66.44;101534.22;2063184;28;47243;-57
2021/12/31 02:25:37;;;;;;;;;10.00;10.00;;;;;15.23;66.11;101536.91;2068259;27;47673;-57
2021/12/31 02:26:37;;;;;;;;;8.25;8.25;;;;;15.23;66.10;101536.03;2083388;28;48200;-56
2021/12/31 02:27:39;;;;;;;;;13.67;13.33;;;;;15.22;66.26;101537.84;2079427;28;47400;-56
2021/12/31 02:28:40;;;;;;;;;11.00;11.00;;;;;15.24;66.30;101540.47;2050486;28;47622;-58
2021/12/31 02:29:41;;;;;;;;;9.67;9.67;;;;;15.23;66.39;101538.72;2059607;28;48351;-56
2021/12/31 02:30:42;;;;;;;;;12.00;11.33;;;;;15.23;66.28;101533.38;2054937;28;47139;-55
2021/12/31 02:31:43;;;;;;;;;10.25;10.00;;;;;15.22;66.48;101532.50;2094487;28;47372;-57
2021/12/31 02:32:43;;;;;;;;;10.50;10.50;;;;;15.22;66.02;101536.97;2071547;27;48401;-56
2021/12/31 02:33:44;;;;;;;;;10.33;9.00;;;;;15.22;66.72;101539.66;2054369;28;48042;-57
2021/12/31 02:34:46;;;;;;;;;9.00;8.67;;;;;15.21;66.58;101533.41;2066882;28;47802;-56
2021/12/31 02:35:47;;;;;;;;;10.25;8.50;;;;;15.21;66.58;101533.41;2062325;28;47967;-57
2021/12/31 02:36:47;;;;;;;;;10.00;10.00;;;;;15.21;66.23;101533.41;2097008;27;47253;-57
2021/12/31 02:37:48;;;;;;;;;11.67;10.00;;;;;15.22;66.65;101536.97;2066668;27;46863;-57
2021/12/31 02:38:49;;;;;;;;;10.33;10.33;;;;;15.23;66.37;101536.03;2055480;28;48121;-56
2021/12/31 02:39:50;;;;;;;;;12.00;12.00;;;;;15.22;65.84;101529.81;2071769;28;46294;-56
2021/12/31 02:40:51;;;;;;;;;12.33;11.33;;;;;15.23;66.08;101528.03;2071886;28;47129;-57
2021/12/31 02:41:51;;;;;;;;;11.67;11.67;;;;;15.22;66.10;101524.47;2096890;27;48255;-58
2021/12/31 02:42:52;;;;;;;;;8.00;8.00;;;;;15.23;66.24;101528.91;2060296;27;48323;-58
2021/12/31 02:43:52;;;;;;;;;10.67;10.67;;;;;15.22;66.45;101526.28;2063924;27;47509;-58
2021/12/31 02:44:55;;;;;;;;;8.00;8.00;;;;;15.21;65.99;101525.41;2070651;27;47587;-56
2021/12/31 02:45:55;;;;;;;;;9.50;9.50;;;;;15.22;65.86;101518.25;2081477;28;48724;-56
2021/12/31 02:46:56;;;;;;;;;12.33;10.00;;;;;15.21;65.94;101527.19;2091952;27;47510;-57
2021/12/31 02:48:00;;;;;;;;;11.00;10.33;;;;;15.21;66.22;101524.53;2061821;27;47260;-55
2021/12/31 02:49:00;;;;;;;;;8.75;8.25;;;;;15.20;65.87;101520.09;2074993;28;48209;-56
2021/12/31 02:50:04;;;;;;;;;11.33;11.00;;;;;15.20;65.79;101517.41;2065009;27;45813;-57
2021/12/31 02:51:06;;;;;;;;;10.50;10.50;;;;;15.19;66.00;101511.19;2093241;28;47954;-58
2021/12/31 02:52:10;;;;;;;;;9.75;8.50;;;;;15.19;65.62;101521.91;2090772;28;47097;-57
2021/12/31 02:53:14;;;;;;;;;8.00;8.00;;;;;15.17;66.17;101515.72;2054127;28;47384;-56
2021/12/31 02:54:17;;;;;;;;;10.00;10.00;;;;;15.16;65.72;101510.41;2089860;28;46074;-58
2021/12/31 02:55:19;;;;;;;;;10.75;8.75;;;;;15.14;65.67;101501.56;2064111;28;47365;-57
2021/12/31 02:56:20;;;;;;;;;15.25;11.75;;;;;15.13;66.11;101503.38;2096674;27;48212;-58
2021/12/31 02:57:21;;;;;;;;;10.25;10.00;;;;;15.13;65.97;101498.03;2083189;27;47643;-56
2021/12/31 02:58:21;;;;;;;;;7.25;7.25;;;;;15.15;65.93;101495.28;2061776;28;46980;-57
2021/12/31 02:59:22;;;;;;;;;10.00;9.33;;;;;15.14;66.00;101493.53;2092612;27;47978;-56
2021/12/31 03:00:23;;;;;;;;;9.33;9.33;;;;;15.14;65.78;101499.78;2079136;28;47277;-56
2021/12/31 03:01:23;;;;;;;;;10.00;10.00;;;;;15.13;65.80;101495.34;2094019;27;48360;-56
2021/12/31 03:02:25;;;;;;;;;10.00;9.33;;;;;15.15;66.04;101498.84;2083878;28;45226;-57
2021/12/31 03:03:27;;;;;;;;;14.50;13.25;;;;;15.14;66.05;101496.22;2059949;28;48001;-57
2021/12/31 03:04:29;;;;;;;;;13.25;11.25;;;;;15.13;65.50;101498.03;2054339;28;48562;-55
2021/12/31 03:05:31;;;;;;;;;10.25;9.50;;;;;15.13;65.56;101503.38;2091194;28;47305;-58
2021/12/31 03:06:32;;;;;;;;;13.00;13.00;;;;;15.11;65.32;101496.28;2091379;27;48131;-58
2021/12/31 03:07:33;;;;;;;;;10.67;10.67;;;;;15.11;65.89;101494.47;2078872;27;46238;-57
2021/12/31 03:08:40;;;;;;;;;12.25;12.25;;;;;15.09;65.78;101499.00;2071884;28;48282;-57
2021/12/31 03:09:46;;;;;;;;;11.75;11.25;;;;;15.09;65.76;101496.31;2075213;28;48419;-57
2021/12/31 03:10:48;;;;;;;;;9.50;9.50;;;;;15.07;65.75;101495.50;2096974;27;46407;-59
2021/12/31 03:11:51;;;;;;;;;9.75;9.75;;;;;15.05;65.33;101494.66;2091668;27;48384;-57
2021/12/31 03:12:53;;;;;;;;;9.50;9.50;;;;;15.03;65.66;101493.84;2065878;27;47841;-56
2021/12/31 03:13:55;;;;;;;;;10.75;9.25;;;;;15.02;66.11;101498.31;2064413;28;47063;-55
2021/12/31 03:14:56;;;;;;;;;8.75;8.50;;;;;15.01;65.92;101499.22;2069660;28;47639;-57
2021/12/31 03:15:59;;;;;;;;;11.75;10.00;;;;;15.01;65.94;101496.56;2096553;27;46303;-58
2021/12/31 03:17:00;;;;;;;;;12.00;11.75;;;;;15.00;66.02;101492.13;2091601;27;46939;-57
2021/12/31 03:18:03;;;;;;;;;11.75;10.75;;;;;15.01;65.99;101501.03;2067867;27;47231;-56
2021/12/31 03:19:04;;;;;;;;;9.25;7.75;;;;;15.01;65.37;101498.34;2060440;27;47423;-57
2021/12/31 03:20:13;;;;;;;;;12.00;11.00;;;;;15.02;65.62;101513.47;2082173;28;48060;-57
2021/12/31 03:21:21;;;;;;;;;9.75;9.75;;;;;15.01;65.78;101509.06;2091550;27;48087;-57
2021/12/31 03:22:24;;;;;;;;;10.75;9.50;;;;;15.00;65.96;101516.19;2086718;27;46906;-58
2021/12/31 03:23:25;;;;;;;;;9.75;9.00;;;;;14.99;65.96;101522.47;2057022;28;47261;-56
2021/12/31 03:24:26;;;;;;;;;9.00;9.00;;;;;14.99;65.79;101526.91;2056822;28;48261;-56
2021/12/31 03:25:26;;;;;;;;;12.33;11.00;;;;;15.00;65.49;101528.69;2054206;28;47532;-56
2021/12/31 03:26:26;;;;;;;;;12.00;11.67;;;;;15.00;65.96;101534.03;2079302;28;46078;-57
2021/12/31 03:27:27;;;;;;;;;12.33;10.00;;;;;14.99;65.62;101527.81;2083495;27;48434;-57
2021/12/31 03:28:27;;;;;;;;;10.00;10.00;;;;;15.00;65.73;101534.03;2061845;28;46807;-57
2021/12/31 03:29:28;;;;;;;;;9.00;9.00;;;;;14.99;65.67;101533.16;2062410;28;46806;-58
2021/12/31 03:30:28;;;;;;;;;10.67;9.67;;;;;14.99;65.86;101534.91;2054224;28;48129;-56
2021/12/31 03:31:29;;;;;;;;;12.67;12.00;;;;;14.98;65.55;101542.06;2088033;28;47234;-58
2021/12/31 03:32:29;;;;;;;;;11.67;9.67;;;;;14.98;65.92;101542.06;2085548;27;48156;-56
2021/12/31 03:33:30;;;;;;;;;11.00;10.00;;;;;14.98;65.92;101544.72;2054313;28;47169;-56
2021/12/31 03:34:30;;;;;;;;;8.33;8.33;;;;;14.98;65.86;101557.22;2070203;28;47130;-56
2021/12/31 03:35:31;;;;;;;;;10.33;9.33;;;;;14.98;65.44;101570.59;2055168;28;48219;-56
2021/12/31 03:36:31;;;;;;;;;9.33;9.33;;;;;14.97;65.42;101568.84;2095651;28;48291;-57
2021/12/31 03:37:31;;;;;;;;;10.00;9.67;;;;;14.97;65.46;101577.72;2076309;27;48062;-55
2021/12/31 03:38:32;;;;;;;;;12.67;12.00;;;;;14.96;66.11;101573.31;2054052;28;47151;-56
2021/12/31 03:39:33;;;;;;;;;10.00;10.00;;;;;14.96;65.44;101573.31;2076850;28;48262;-58
2021/12/31 03:40:33;;;;;;;;;8.00;8.00;;;;;14.97;65.63;101583.06;2062744;28;48499;-57
2021/12/31 03:41:34;;;;;;;;;10.67;10.67;;;;;14.97;65.63;101579.53;2096985;27;45602;-58
2021/12/31 03:42:34;;;;;;;;;9.67;9.67;;;;;14.97;65.53;101571.50;2074093;27;48188;-57
2021/12/31 03:43:35;;;;;;;;;13.00;12.33;;;;;14.96;65.48;101567.97;2054777;28;48032;-57
2021/12/31 03:44:35;;;;;;;;;8.67;8.67;;;;;14.96;65.50;101565.28;2083012;27;47260;-57
2021/12/31 03:45:36;;;;;;;;;14.00;11.33;;;;;14.95;65.23;101554.63;2070550;28;47221;-55
2021/12/31 03:46:36;;;;;;;;;11.25;10.25;;;;;14.95;65.90;101554.63;2096679;27;46931;-56
2021/12/31 03:47:37;;;;;;;;;12.33;10.33;;;;;14.96;65.41;101545.69;2072077;27;48305;-54
2021/12/31 03:48:38;;;;;;;;;10.67;10.67;;;;;14.95;65.58;101539.47;2062101;28;47348;-55
2021/12/31 03:49:38;;;;;;;;;11.67;10.00;;;;;14.95;65.68;101530.59;2065554;27;48233;-57
2021/12/31 03:50:39;;;;;;;;;14.00;11.67;;;;;14.96;65.20;101532.34;2079007;28;47241;-55
2021/12/31 03:51:39;;;;;;;;;11.67;10.67;;;;;14.95;65.50;101523.44;2092546;28;47295;-56
2021/12/31 03:52:40;;;;;;;;;6.00;6.00;;;;;14.95;65.74;101526.13;2073943;28;46929;-56
2021/12/31 03:53:41;;;;;;;;;10.25;10.25;;;;;14.94;65.17;101523.47;2070722;28;47859;-56
2021/12/31 03:54:41;;;;;;;;;7.67;7.67;;;;;14.92;65.44;101526.19;2079483;27;47865;-56
2021/12/31 03:55:42;;;;;;;;;7.67;7.67;;;;;14.92;65.24;101528.00;2087679;28;47000;-56
2021/12/31 03:56:43;;;;;;;;;9.75;7.75;;;;;14.93;65.26;101524.41;2092994;27;47170;-57
2021/12/31 03:57:43;;;;;;;;;6.33;6.33;;;;;14.93;65.34;101524.41;2071475;27;47087;-54
2021/12/31 03:58:44;;;;;;;;;8.00;8.00;;;;;14.92;65.38;101520.84;2058839;28;47328;-57
2021/12/31 03:59:44;;;;;;;;;8.33;7.33;;;;;14.92;65.36;101511.97;2052201;28;48161;-54
2021/12/31 04:00:46;;;;;;;;;7.67;7.00;;;;;14.92;65.11;101517.31;2096707;27;48289;-56
2021/12/31 04:01:46;;;;;;;;;6.25;6.25;;;;;14.91;65.12;101518.22;2092662;27;48173;-57
2021/12/31 04:02:47;;;;;;;;;6.00;6.00;;;;;14.91;65.47;101512.88;2069761;27;48100;-56
2021/12/31 04:03:47;;;;;;;;;7.67;6.00;;;;;14.91;65.05;101504.88;2065649;28;47266;-56
2021/12/31 04:04:47;;;;;;;;;7.33;7.33;;;;;14.91;65.12;101507.53;2063996;28;47374;-56
2021/12/31 04:05:50;;;;;;;;;7.67;7.67;;;;;14.89;64.96;101496.03;2096628;27;47191;-56
2021/12/31 04:06:50;;;;;;;;;7.25;6.00;;;;;14.90;65.03;101495.09;2092600;27;47725;-56
2021/12/31 04:07:52;;;;;;;;;9.00;9.00;;;;;14.89;65.15;101496.91;2068160;27;48536;-57
2021/12/31 04:08:52;;;;;;;;;8.00;7.75;;;;;14.90;65.12;101492.44;2081390;27;48312;-56
2021/12/31 04:09:53;;;;;;;;;4.00;3.00;;;;;14.91;65.38;101499.53;2074305;28;47081;-56
2021/12/31 04:10:53;;;;;;;;;2.33;1.33;;;;;14.90;64.90;101497.78;2096511;27;47290;-55
2021/12/31 04:11:53;;;;;;;;;8.33;6.33;;;;;14.90;65.41;101492.44;2090834;27;48032;-58
2021/12/31 04:12:55;;;;;;;;;7.00;7.00;;;;;14.90;65.20;101487.97;2064816;27;46979;-57
2021/12/31 04:13:55;;;;;;;;;2.50;2.50;;;;;14.89;65.22;101486.22;2063642;28;48030;-56
2021/12/31 04:14:56;;;;;;;;;6.33;5.67;;;;;14.90;64.89;101487.09;2067989;28;47409;-55
2021/12/31 04:15:56;;;;;;;;;7.00;6.00;;;;;14.89;64.89;101486.22;2096317;27;47243;-57
2021/12/31 04:16:57;;;;;;;;;3.33;3.33;;;;;14.89;65.19;101475.50;2090084;27;47143;-56
2021/12/31 04:17:57;;;;;;;;;8.00;8.00;;;;;14.90;64.94;101479.94;2065760;27;47205;-56
2021/12/31 04:18:58;;;;;;;;;8.33;4.67;;;;;14.90;64.90;101481.72;2065571;27;48400;-58
2021/12/31 04:19:58;;;;;;;;;7.33;7.33;;;;;14.90;64.75;101493.31;2077493;28;47216;-57
2021/12/31 04:21:00;;;;;;;;;5.00;5.00;;;;;14.91;64.77;101494.19;2096120;27;47837;-56
2021/12/31 04:22:01;;;;;;;;;6.25;6.25;;;;;14.91;65.13;101500.41;2094941;28;47492;-57
2021/12/31 04:23:04;;;;;;;;;6.25;5.75;;;;;14.91;64.69;101503.06;2074116;28;46829;-57
2021/12/31 04:24:14;;;;;;;;;6.75;6.00;;;;;14.91;64.69;101504.88;2060468;28;47363;-56
2021/12/31 04:25:14;;;;;;;;;5.00;5.00;;;;;14.92;64.60;101503.94;2083564;28;47522;-57
2021/12/31 04:26:15;;;;;;;;;7.33;6.67;;;;;14.91;64.83;101497.72;2065629;28;48147;-56
2021/12/31 04:27:17;;;;;;;;;8.25;7.25;;;;;14.91;64.96;101500.41;2093240;27;47237;-56
2021/12/31 04:28:17;;;;;;;;;6.25;6.00;;;;;14.90;64.55;101493.31;2061317;28;48247;-58
2021/12/31 04:29:17;;;;;;;;;6.33;6.33;;;;;14.91;64.53;101494.19;2062509;28;47078;-55
2021/12/31 04:30:18;;;;;;;;;7.00;7.00;;;;;14.91;64.43;101494.19;2055209;28;47978;-57
2021/12/31 04:31:18;;;;;;;;;5.50;5.50;;;;;14.90;64.74;101492.44;2078612;28;46996;-56
2021/12/31 04:32:21;;;;;;;;;7.00;6.67;;;;;14.91;65.12;101488.84;2091084;27;48244;-56
2021/12/31 04:33:22;;;;;;;;;5.75;5.75;;;;;14.89;64.50;101483.53;2056187;28;47488;-54
2021/12/31 04:34:22;;;;;;;;;6.67;6.67;;;;;14.89;64.64;101479.97;2068029;28;47181;-56
2021/12/31 04:35:23;;;;;;;;;7.67;6.67;;;;;14.89;64.91;101477.31;2055397;28;48376;-56
2021/12/31 04:36:23;;;;;;;;;7.00;7.00;;;;;14.90;64.40;101484.41;2087373;28;48086;-57
2021/12/31 04:37:24;;;;;;;;;5.67;5.67;;;;;14.88;64.80;101476.44;2087640;27;47536;-58
2021/12/31 04:38:24;;;;;;;;;7.33;7.33;;;;;14.89;64.56;101479.97;2054746;28;48177;-56
2021/12/31 04:39:24;;;;;;;;;5.00;5.00;;;;;14.88;64.62;101479.09;2073224;28;45439;-56
2021/12/31 04:40:25;;;;;;;;;6.00;6.00;;;;;14.89;64.57;101474.63;2055413;28;47243;-55
2021/12/31 04:41:26;;;;;;;;;8.67;7.00;;;;;14.89;64.38;101475.50;2094791;28;47262;-55
2021/12/31 04:42:26;;;;;;;;;6.00;5.33;;;;;14.88;64.39;101468.41;2081334;27;47204;-56
2021/12/31 04:43:26;;;;;;;;;8.67;7.67;;;;;14.90;64.72;101471.03;2055349;28;45353;-55
2021/12/31 04:44:27;;;;;;;;;6.67;5.67;;;;;14.89;64.87;101466.63;2079527;28;48106;-57
2021/12/31 04:45:28;;;;;;;;;5.00;5.00;;;;;14.89;64.35;101463.94;2060134;28;47192;-56